»·PEaware :: DAL2113 KAMA-KASE

DAL2113 :: KAMA-KASE

FLIGHT INFORMATION

Flight Status: Arrived
Operator:
Delta Air Lines
More flights by this operator :: More flights under this callsign
Pilot: Max W. (2591)
Aircraft: BOEING 737-200
(B732)
More flights by this aircraft type
Origin: KAMA Amarillo Intl
United States
Destination: KASE Aspen-Pitkin Co/Sardy
United States
More flights between these airports :: More routes between these airports
Route: PNH V81 PUB DBL
File this flight plan on PilotEdge
Remarks: I HAVE A PEN AND PAPER READY TO COPY THE NUMBER
Altitude:
(Current/Filed)
32,000ft
Speed:
(Current/Filed)
450kts
Departed: 20-Sep-18 06:53 PM
Arrived: 20-Sep-18 07:51 PM
Distance/Time
Traveled:
344nm/0:57
Distance/Time
To Go:
Arrived

Flight Plot

Page will automatically refresh every two minutes.

Flight plan parsing failed; only flown route is shown


Map Options




Map Legend


Flown Route
Filed Route
Departure Airport
Arrival Airport
Navaid (VOR, NDB)
Fix

Horizontal Profiles

Position Reports

Time Latitude Longitude Heading Altitude Ground
Speed
20-Sep-18 18:42 35.219326 -101.706110 156 3615ft 0kts
20-Sep-18 18:43 35.219326 -101.706110 156 3615ft 0kts
20-Sep-18 18:44 35.219326 -101.706110 156 3615ft 0kts
20-Sep-18 18:45 35.219326 -101.706110 156 3615ft 0kts
20-Sep-18 18:46 35.219326 -101.706110 156 3615ft 0kts
20-Sep-18 18:47 35.219326 -101.706110 156 3615ft 0kts
20-Sep-18 18:48 35.219326 -101.706110 156 3615ft 0kts
20-Sep-18 18:49 35.219361 -101.706129 156 3615ft 2kts
20-Sep-18 18:50 35.219665 -101.706607 75 3615ft 2kts
20-Sep-18 18:51 35.219570 -101.706801 48 3615ft 0kts
20-Sep-18 18:52 35.221030 -101.705786 33 3615ft 18kts
20-Sep-18 18:53 35.225100 -101.702388 46 3615ft 26kts
20-Sep-18 18:54 35.229896 -101.699743 305 3615ft 18kts
20-Sep-18 18:55 35.215087 -101.719447 220 4478ft 156kts
20-Sep-18 18:56 35.167946 -101.767068 220 6993ft 273kts
20-Sep-18 18:57 35.108639 -101.827125 221 10715ft 313kts
20-Sep-18 18:58 35.049163 -101.910151 259 14056ft 337kts
20-Sep-18 18:59 35.091139 -102.006287 327 16895ft 369kts
20-Sep-18 19:00 35.180846 -102.067552 331 19861ft 376kts
20-Sep-18 19:01 35.277679 -102.120881 333 22116ft 392kts
20-Sep-18 19:02 35.379909 -102.174146 334 23974ft 407kts
20-Sep-18 19:03 35.485246 -102.228527 334 25643ft 418kts
20-Sep-18 19:04 35.593551 -102.284584 334 27081ft 429kts
20-Sep-18 19:05 35.704168 -102.341926 334 28328ft 438kts
20-Sep-18 19:06 35.817240 -102.400757 333 29418ft 446kts
20-Sep-18 19:07 35.931984 -102.460643 333 30369ft 453kts
20-Sep-18 19:08 36.048820 -102.521830 333 31206ft 460kts
20-Sep-18 19:09 36.165045 -102.582222 334 31915ft 466kts
20-Sep-18 19:10 36.285880 -102.645663 333 31939ft 476kts
20-Sep-18 19:11 36.404099 -102.709852 333 31945ft 471kts
20-Sep-18 19:12 36.523999 -102.773752 333 31945ft 468kts
20-Sep-18 19:13 36.627060 -102.864988 311 31947ft 458kts
20-Sep-18 19:14 36.719766 -102.975247 313 31947ft 468kts
20-Sep-18 19:15 36.815200 -103.085419 314 31945ft 473kts
20-Sep-18 19:16 36.909115 -103.193677 314 31943ft 453kts
20-Sep-18 19:17 37.000310 -103.299274 313 31944ft 453kts
20-Sep-18 19:18 37.092153 -103.405951 313 31944ft 452kts
20-Sep-18 19:19 37.174479 -103.500872 313 31940ft 452kts
20-Sep-18 19:20 37.266977 -103.608604 315 31938ft 458kts
20-Sep-18 19:21 37.384302 -103.659176 350 31947ft 479kts
20-Sep-18 19:22 37.504903 -103.718007 325 31950ft 469kts
20-Sep-18 19:23 37.612869 -103.808455 321 31945ft 468kts
20-Sep-18 19:24 37.717833 -103.902499 320 31944ft 466kts
20-Sep-18 19:25 37.822470 -103.997400 320 31944ft 465kts
20-Sep-18 19:26 37.926872 -104.092545 320 31944ft 464kts
20-Sep-18 19:27 38.031086 -104.187856 320 31944ft 464kts
20-Sep-18 19:28 38.122601 -104.271544 321 31940ft 464kts
20-Sep-18 19:29 38.224620 -104.364647 320 31941ft 463kts
20-Sep-18 19:30 38.320821 -104.469051 297 31958ft 451kts
20-Sep-18 19:31 38.381742 -104.606308 298 31939ft 451kts
20-Sep-18 19:32 38.442320 -104.736324 297 31945ft 451kts
20-Sep-18 19:33 38.504918 -104.868158 298 31944ft 452kts
20-Sep-18 19:34 38.569941 -105.004983 298 31944ft 452kts
20-Sep-18 19:35 38.634867 -105.142090 298 31943ft 452kts
20-Sep-18 19:36 38.699319 -105.278828 298 31943ft 452kts
20-Sep-18 19:37 38.753098 -105.393367 298 31942ft 452kts
20-Sep-18 19:38 38.828258 -105.554138 298 31942ft 452kts
20-Sep-18 19:39 38.880114 -105.665752 297 31946ft 452kts
20-Sep-18 19:40 38.951650 -105.822085 297 31946ft 452kts
20-Sep-18 19:41 39.004677 -105.937156 297 31946ft 453kts
20-Sep-18 19:42 39.078280 -106.097372 297 30171ft 445kts
20-Sep-18 19:43 39.118110 -106.202925 275 27816ft 423kts
20-Sep-18 19:44 39.112469 -106.345296 265 22986ft 394kts
20-Sep-18 19:45 39.104060 -106.477836 265 17410ft 365kts
20-Sep-18 19:46 39.099156 -106.591026 284 15582ft 261kts
20-Sep-18 19:47 39.142924 -106.648503 334 14333ft 238kts
20-Sep-18 19:48 39.192798 -106.688703 296 13426ft 228kts
20-Sep-18 19:49 39.213475 -106.766477 267 11895ft 220kts
20-Sep-18 19:50 39.217333 -106.835294 310 10276ft 188kts
20-Sep-18 19:51 39.262918 -106.857195 319 9257ft 159kts
20-Sep-18 19:52 39.242298 -106.877979 160 8005ft 153kts
20-Sep-18 19:53 39.223446 -106.867795 64 7782ft 2kts
20-Sep-18 19:54 39.223481 -106.867390 109 7782ft 0kts

Navigation Log

Ident Type
Flight plan parsing failed, navigation log unavailable